sensor_id;sensor_type;location;lat;lon;timestamp;P1;durP1;ratioP1;P2;durP2;ratioP2
57856;SDS011;43683;48.650;9.290;2023-01-09T00:01:20;6.65;;;3.55;;
57856;SDS011;43683;48.650;9.290;2023-01-09T00:03:54;4.63;;;2.78;;
57856;SDS011;43683;48.650;9.290;2023-01-09T00:06:19;4.25;;;2.88;;
57856;SDS011;43683;48.650;9.290;2023-01-09T00:08:45;4.20;;;2.65;;
57856;SDS011;43683;48.650;9.290;2023-01-09T00:11:10;3.90;;;2.65;;
57856;SDS011;43683;48.650;9.290;2023-01-09T00:13:36;3.60;;;2.35;;
57856;SDS011;43683;48.650;9.290;2023-01-09T00:16:03;2.65;;;2.45;;
57856;SDS011;43683;48.650;9.290;2023-01-09T00:18:36;2.90;;;2.00;;
57856;SDS011;43683;48.650;9.290;2023-01-09T00:21:02;3.05;;;2.28;;
57856;SDS011;43683;48.650;9.290;2023-01-09T00:23:29;2.60;;;1.83;;
57856;SDS011;43683;48.650;9.290;2023-01-09T00:26:05;4.18;;;2.20;;
57856;SDS011;43683;48.650;9.290;2023-01-09T00:28:32;2.85;;;1.88;;
57856;SDS011;43683;48.650;9.290;2023-01-09T00:30:59;2.08;;;1.80;;
57856;SDS011;43683;48.650;9.290;2023-01-09T00:33:31;4.10;;;2.20;;
57856;SDS011;43683;48.650;9.290;2023-01-09T00:35:58;3.08;;;2.08;;
57856;SDS011;43683;48.650;9.290;2023-01-09T00:38:24;2.78;;;1.88;;
57856;SDS011;43683;48.650;9.290;2023-01-09T00:40:50;2.05;;;1.83;;
57856;SDS011;43683;48.650;9.290;2023-01-09T00:43:17;3.20;;;2.08;;
57856;SDS011;43683;48.650;9.290;2023-01-09T00:45:44;3.83;;;2.17;;
57856;SDS011;43683;48.650;9.290;2023-01-09T00:48:12;2.88;;;1.90;;
57856;SDS011;43683;48.650;9.290;2023-01-09T00:50:40;2.55;;;2.00;;
57856;SDS011;43683;48.650;9.290;2023-01-09T00:53:11;3.15;;;2.08;;
57856;SDS011;43683;48.650;9.290;2023-01-09T00:55:39;2.17;;;1.80;;
57856;SDS011;43683;48.650;9.290;2023-01-09T00:58:05;2.80;;;2.00;;
57856;SDS011;43683;48.650;9.290;2023-01-09T01:00:31;3.63;;;2.28;;
57856;SDS011;43683;48.650;9.290;2023-01-09T01:02:57;2.97;;;1.92;;
57856;SDS011;43683;48.650;9.290;2023-01-09T01:05:22;1.95;;;1.73;;
57856;SDS011;43683;48.650;9.290;2023-01-09T01:08:11;2.17;;;1.98;;
57856;SDS011;43683;48.650;9.290;2023-01-09T01:10:38;3.80;;;2.05;;
57856;SDS011;43683;48.650;9.290;2023-01-09T01:13:03;2.60;;;2.28;;
57856;SDS011;43683;48.650;9.290;2023-01-09T01:15:29;2.95;;;2.20;;
57856;SDS011;43683;48.650;9.290;2023-01-09T01:17:55;2.50;;;2.25;;
57856;SDS011;43683;48.650;9.290;2023-01-09T01:20:21;3.17;;;2.30;;
57856;SDS011;43683;48.650;9.290;2023-01-09T01:22:47;3.78;;;2.40;;
57856;SDS011;43683;48.650;9.290;2023-01-09T01:25:13;2.88;;;1.90;;
57856;SDS011;43683;48.650;9.290;2023-01-09T01:27:41;2.72;;;2.10;;
57856;SDS011;43683;48.650;9.290;2023-01-09T01:30:08;3.88;;;2.13;;
57856;SDS011;43683;48.650;9.290;2023-01-09T01:32:37;2.45;;;2.05;;
57856;SDS011;43683;48.650;9.290;2023-01-09T01:35:03;2.65;;;2.20;;
57856;SDS011;43683;48.650;9.290;2023-01-09T01:37:29;3.65;;;3.10;;
57856;SDS011;43683;48.650;9.290;2023-01-09T01:39:55;2.67;;;2.00;;
57856;SDS011;43683;48.650;9.290;2023-01-09T01:42:20;3.38;;;2.72;;
57856;SDS011;43683;48.650;9.290;2023-01-09T01:47:26;1.98;;;1.50;;
57856;SDS011;43683;48.650;9.290;2023-01-09T01:50:40;1.67;;;1.42;;
57856;SDS011;43683;48.650;9.290;2023-01-09T01:53:17;1.50;;;1.40;;
57856;SDS011;43683;48.650;9.290;2023-01-09T01:58:27;1.40;;;1.30;;
57856;SDS011;43683;48.650;9.290;2023-01-09T02:00:53;1.52;;;1.30;;
57856;SDS011;43683;48.650;9.290;2023-01-09T02:03:20;1.60;;;1.50;;
57856;SDS011;43683;48.650;9.290;2023-01-09T02:05:49;2.22;;;1.50;;
57856;SDS011;43683;48.650;9.290;2023-01-09T02:08:15;1.52;;;1.40;;
57856;SDS011;43683;48.650;9.290;2023-01-09T02:10:41;2.25;;;2.05;;
57856;SDS011;43683;48.650;9.290;2023-01-09T02:13:08;2.50;;;1.67;;
57856;SDS011;43683;48.650;9.290;2023-01-09T02:18:35;2.45;;;1.40;;
57856;SDS011;43683;48.650;9.290;2023-01-09T02:21:09;1.45;;;1.35;;
57856;SDS011;43683;48.650;9.290;2023-01-09T02:24:09;1.60;;;1.35;;
57856;SDS011;43683;48.650;9.290;2023-01-09T02:27:00;2.75;;;1.55;;
57856;SDS011;43683;48.650;9.290;2023-01-09T02:29:44;2.30;;;1.45;;
57856;SDS011;43683;48.650;9.290;2023-01-09T02:32:32;1.92;;;1.73;;
57856;SDS011;43683;48.650;9.290;2023-01-09T02:35:08;1.55;;;1.23;;
57856;SDS011;43683;48.650;9.290;2023-01-09T02:38:16;5.15;;;2.45;;
57856;SDS011;43683;48.650;9.290;2023-01-09T02:41:01;6.43;;;2.58;;
57856;SDS011;43683;48.650;9.290;2023-01-09T02:43:37;5.88;;;3.00;;
57856;SDS011;43683;48.650;9.290;2023-01-09T02:46:04;1.60;;;1.50;;
57856;SDS011;43683;48.650;9.290;2023-01-09T02:48:30;1.10;;;1.10;;
57856;SDS011;43683;48.650;9.290;2023-01-09T02:53:43;1.17;;;1.08;;
57856;SDS011;43683;48.650;9.290;2023-01-09T02:59:24;2.08;;;1.52;;
57856;SDS011;43683;48.650;9.290;2023-01-09T03:04:56;0.90;;;0.90;;
57856;SDS011;43683;48.650;9.290;2023-01-09T03:10:21;1.15;;;1.05;;
57856;SDS011;43683;48.650;9.290;2023-01-09T03:12:52;1.10;;;1.05;;
57856;SDS011;43683;48.650;9.290;2023-01-09T03:15:21;1.52;;;1.00;;
57856;SDS011;43683;48.650;9.290;2023-01-09T03:17:50;1.00;;;1.00;;
57856;SDS011;43683;48.650;9.290;2023-01-09T03:20:17;0.80;;;0.80;;
57856;SDS011;43683;48.650;9.290;2023-01-09T03:22:52;1.15;;;1.02;;
57856;SDS011;43683;48.650;9.290;2023-01-09T03:25:18;1.00;;;1.00;;
57856;SDS011;43683;48.650;9.290;2023-01-09T03:27:44;1.00;;;1.00;;
57856;SDS011;43683;48.650;9.290;2023-01-09T03:30:09;1.33;;;1.20;;
57856;SDS011;43683;48.650;9.290;2023-01-09T03:32:35;1.13;;;1.02;;
57856;SDS011;43683;48.650;9.290;2023-01-09T03:35:01;0.93;;;0.88;;
57856;SDS011;43683;48.650;9.290;2023-01-09T03:37:26;1.17;;;1.00;;
57856;SDS011;43683;48.650;9.290;2023-01-09T03:39:52;0.93;;;0.93;;
57856;SDS011;43683;48.650;9.290;2023-01-09T03:42:17;1.00;;;1.00;;
57856;SDS011;43683;48.650;9.290;2023-01-09T03:44:43;1.05;;;0.90;;
57856;SDS011;43683;48.650;9.290;2023-01-09T03:47:08;1.00;;;1.00;;
57856;SDS011;43683;48.650;9.290;2023-01-09T03:49:34;0.98;;;0.88;;
57856;SDS011;43683;48.650;9.290;2023-01-09T03:51:59;0.90;;;0.90;;
57856;SDS011;43683;48.650;9.290;2023-01-09T03:54:25;1.05;;;1.05;;
57856;SDS011;43683;48.650;9.290;2023-01-09T03:56:51;1.20;;;1.10;;
57856;SDS011;43683;48.650;9.290;2023-01-09T03:59:16;1.92;;;1.33;;
57856;SDS011;43683;48.650;9.290;2023-01-09T04:01:42;1.55;;;1.20;;
57856;SDS011;43683;48.650;9.290;2023-01-09T04:04:08;1.50;;;1.17;;
57856;SDS011;43683;48.650;9.290;2023-01-09T04:06:33;4.32;;;2.03;;
57856;SDS011;43683;48.650;9.290;2023-01-09T04:08:59;1.35;;;1.10;;
57856;SDS011;43683;48.650;9.290;2023-01-09T04:11:24;3.83;;;2.13;;
57856;SDS011;43683;48.650;9.290;2023-01-09T04:13:50;2.00;;;1.67;;
57856;SDS011;43683;48.650;9.290;2023-01-09T04:16:15;1.70;;;1.60;;
57856;SDS011;43683;48.650;9.290;2023-01-09T04:18:41;1.15;;;1.15;;
57856;SDS011;43683;48.650;9.290;2023-01-09T04:21:06;1.60;;;1.30;;
57856;SDS011;43683;48.650;9.290;2023-01-09T04:23:32;1.80;;;1.52;;
57856;SDS011;43683;48.650;9.290;2023-01-09T04:25:57;1.42;;;1.33;;
57856;SDS011;43683;48.650;9.290;2023-01-09T04:28:23;2.42;;;1.85;;
57856;SDS011;43683;48.650;9.290;2023-01-09T04:30:48;1.02;;;1.02;;
57856;SDS011;43683;48.650;9.290;2023-01-09T04:33:14;1.10;;;1.10;;
57856;SDS011;43683;48.650;9.290;2023-01-09T04:35:39;1.10;;;1.10;;
57856;SDS011;43683;48.650;9.290;2023-01-09T04:38:05;1.10;;;1.10;;
57856;SDS011;43683;48.650;9.290;2023-01-09T04:40:30;0.80;;;0.80;;
57856;SDS011;43683;48.650;9.290;2023-01-09T04:42:56;1.27;;;1.17;;
57856;SDS011;43683;48.650;9.290;2023-01-09T04:45:21;1.08;;;0.93;;
57856;SDS011;43683;48.650;9.290;2023-01-09T04:47:47;0.90;;;0.90;;
57856;SDS011;43683;48.650;9.290;2023-01-09T04:50:13;1.88;;;1.00;;
57856;SDS011;43683;48.650;9.290;2023-01-09T04:52:38;0.80;;;0.80;;
57856;SDS011;43683;48.650;9.290;2023-01-09T04:55:05;0.80;;;0.80;;
57856;SDS011;43683;48.650;9.290;2023-01-09T04:57:31;0.90;;;0.90;;
57856;SDS011;43683;48.650;9.290;2023-01-09T04:59:57;0.80;;;0.80;;
57856;SDS011;43683;48.650;9.290;2023-01-09T05:02:23;1.17;;;0.80;;
57856;SDS011;43683;48.650;9.290;2023-01-09T05:04:48;0.95;;;0.95;;
57856;SDS011;43683;48.650;9.290;2023-01-09T05:07:14;1.00;;;1.00;;
57856;SDS011;43683;48.650;9.290;2023-01-09T05:09:39;0.98;;;0.98;;
57856;SDS011;43683;48.650;9.290;2023-01-09T05:12:05;1.23;;;1.10;;
57856;SDS011;43683;48.650;9.290;2023-01-09T05:14:31;1.00;;;1.00;;
57856;SDS011;43683;48.650;9.290;2023-01-09T05:16:57;1.00;;;1.00;;
57856;SDS011;43683;48.650;9.290;2023-01-09T05:19:22;0.95;;;0.95;;
57856;SDS011;43683;48.650;9.290;2023-01-09T05:21:49;1.10;;;1.10;;
57856;SDS011;43683;48.650;9.290;2023-01-09T05:24:15;1.20;;;1.20;;
57856;SDS011;43683;48.650;9.290;2023-01-09T05:29:08;1.17;;;1.05;;
57856;SDS011;43683;48.650;9.290;2023-01-09T05:31:34;1.00;;;1.00;;
57856;SDS011;43683;48.650;9.290;2023-01-09T05:34:00;1.00;;;1.00;;
57856;SDS011;43683;48.650;9.290;2023-01-09T05:36:25;1.05;;;1.05;;
57856;SDS011;43683;48.650;9.290;2023-01-09T05:38:51;1.20;;;1.10;;
57856;SDS011;43683;48.650;9.290;2023-01-09T05:41:16;1.00;;;1.00;;
57856;SDS011;43683;48.650;9.290;2023-01-09T05:43:42;1.08;;;1.08;;
57856;SDS011;43683;48.650;9.290;2023-01-09T05:46:07;0.90;;;0.90;;
57856;SDS011;43683;48.650;9.290;2023-01-09T05:48:33;1.10;;;1.10;;
57856;SDS011;43683;48.650;9.290;2023-01-09T05:50:58;0.88;;;0.88;;
57856;SDS011;43683;48.650;9.290;2023-01-09T05:53:24;1.00;;;1.00;;
57856;SDS011;43683;48.650;9.290;2023-01-09T05:55:49;1.00;;;1.00;;
57856;SDS011;43683;48.650;9.290;2023-01-09T05:58:15;1.00;;;1.00;;
57856;SDS011;43683;48.650;9.290;2023-01-09T06:00:40;1.00;;;1.00;;
57856;SDS011;43683;48.650;9.290;2023-01-09T06:03:06;1.00;;;1.00;;
57856;SDS011;43683;48.650;9.290;2023-01-09T06:05:31;1.02;;;1.00;;
57856;SDS011;43683;48.650;9.290;2023-01-09T06:07:57;1.20;;;1.00;;
57856;SDS011;43683;48.650;9.290;2023-01-09T06:10:23;1.00;;;1.00;;
57856;SDS011;43683;48.650;9.290;2023-01-09T06:12:49;1.30;;;1.20;;
57856;SDS011;43683;48.650;9.290;2023-01-09T06:15:15;1.20;;;1.20;;
57856;SDS011;43683;48.650;9.290;2023-01-09T06:17:42;1.20;;;1.10;;
57856;SDS011;43683;48.650;9.290;2023-01-09T06:20:08;1.10;;;1.10;;
57856;SDS011;43683;48.650;9.290;2023-01-09T06:22:35;1.10;;;1.10;;
57856;SDS011;43683;48.650;9.290;2023-01-09T06:25:01;1.08;;;1.08;;
57856;SDS011;43683;48.650;9.290;2023-01-09T06:27:27;1.10;;;1.10;;
57856;SDS011;43683;48.650;9.290;2023-01-09T06:29:52;1.88;;;1.15;;
57856;SDS011;43683;48.650;9.290;2023-01-09T06:32:18;1.10;;;1.10;;
57856;SDS011;43683;48.650;9.290;2023-01-09T06:34:43;1.40;;;1.30;;
57856;SDS011;43683;48.650;9.290;2023-01-09T06:37:09;1.30;;;1.20;;
57856;SDS011;43683;48.650;9.290;2023-01-09T06:39:34;1.20;;;1.20;;
57856;SDS011;43683;48.650;9.290;2023-01-09T06:42:00;1.40;;;1.30;;
57856;SDS011;43683;48.650;9.290;2023-01-09T06:44:26;1.45;;;1.35;;
57856;SDS011;43683;48.650;9.290;2023-01-09T06:46:51;1.70;;;1.60;;
57856;SDS011;43683;48.650;9.290;2023-01-09T06:49:17;2.45;;;1.70;;
57856;SDS011;43683;48.650;9.290;2023-01-09T06:51:47;1.95;;;1.85;;
57856;SDS011;43683;48.650;9.290;2023-01-09T06:54:14;1.60;;;1.50;;
57856;SDS011;43683;48.650;9.290;2023-01-09T06:56:40;1.63;;;1.52;;
57856;SDS011;43683;48.650;9.290;2023-01-09T06:59:05;1.55;;;1.45;;
57856;SDS011;43683;48.650;9.290;2023-01-09T07:01:30;2.47;;;1.52;;
57856;SDS011;43683;48.650;9.290;2023-01-09T07:03:56;1.73;;;1.58;;
57856;SDS011;43683;48.650;9.290;2023-01-09T07:06:21;1.83;;;1.73;;
57856;SDS011;43683;48.650;9.290;2023-01-09T07:08:47;2.03;;;1.92;;
57856;SDS011;43683;48.650;9.290;2023-01-09T07:11:12;1.58;;;1.48;;
57856;SDS011;43683;48.650;9.290;2023-01-09T07:13:38;1.33;;;1.33;;
57856;SDS011;43683;48.650;9.290;2023-01-09T07:16:04;1.83;;;1.70;;
57856;SDS011;43683;48.650;9.290;2023-01-09T07:18:30;2.10;;;2.00;;
57856;SDS011;43683;48.650;9.290;2023-01-09T07:20:55;1.95;;;1.45;;
57856;SDS011;43683;48.650;9.290;2023-01-09T07:23:21;1.80;;;1.60;;
57856;SDS011;43683;48.650;9.290;2023-01-09T07:25:46;2.97;;;1.95;;
57856;SDS011;43683;48.650;9.290;2023-01-09T07:28:14;2.22;;;1.60;;
57856;SDS011;43683;48.650;9.290;2023-01-09T07:30:40;4.47;;;1.92;;
57856;SDS011;43683;48.650;9.290;2023-01-09T07:33:05;1.60;;;1.50;;
57856;SDS011;43683;48.650;9.290;2023-01-09T07:35:31;2.78;;;1.42;;
57856;SDS011;43683;48.650;9.290;2023-01-09T07:37:57;3.05;;;1.90;;
57856;SDS011;43683;48.650;9.290;2023-01-09T07:40:22;1.50;;;1.40;;
57856;SDS011;43683;48.650;9.290;2023-01-09T07:42:48;3.35;;;1.70;;
57856;SDS011;43683;48.650;9.290;2023-01-09T07:45:17;1.85;;;1.35;;
57856;SDS011;43683;48.650;9.290;2023-01-09T07:47:42;1.67;;;1.58;;
57856;SDS011;43683;48.650;9.290;2023-01-09T07:50:08;2.67;;;1.75;;
57856;SDS011;43683;48.650;9.290;2023-01-09T07:52:34;2.10;;;1.60;;
57856;SDS011;43683;48.650;9.290;2023-01-09T07:55:00;1.30;;;1.30;;
57856;SDS011;43683;48.650;9.290;2023-01-09T07:57:25;2.35;;;1.42;;
57856;SDS011;43683;48.650;9.290;2023-01-09T07:59:51;2.15;;;1.55;;
57856;SDS011;43683;48.650;9.290;2023-01-09T08:02:16;2.20;;;1.50;;
57856;SDS011;43683;48.650;9.290;2023-01-09T08:04:42;1.48;;;1.33;;
57856;SDS011;43683;48.650;9.290;2023-01-09T08:07:08;1.52;;;1.40;;
57856;SDS011;43683;48.650;9.290;2023-01-09T08:09:33;1.40;;;1.30;;
57856;SDS011;43683;48.650;9.290;2023-01-09T08:11:59;1.60;;;1.50;;
57856;SDS011;43683;48.650;9.290;2023-01-09T08:14:24;2.35;;;1.52;;
57856;SDS011;43683;48.650;9.290;2023-01-09T08:16:50;1.83;;;1.40;;
57856;SDS011;43683;48.650;9.290;2023-01-09T08:19:15;2.30;;;1.70;;
57856;SDS011;43683;48.650;9.290;2023-01-09T08:21:41;1.88;;;1.20;;
57856;SDS011;43683;48.650;9.290;2023-01-09T08:24:07;1.48;;;1.30;;
57856;SDS011;43683;48.650;9.290;2023-01-09T08:26:33;4.03;;;1.93;;
57856;SDS011;43683;48.650;9.290;2023-01-09T08:28:59;1.73;;;1.38;;
57856;SDS011;43683;48.650;9.290;2023-01-09T08:31:24;1.83;;;1.70;;
57856;SDS011;43683;48.650;9.290;2023-01-09T08:33:49;1.25;;;1.25;;
57856;SDS011;43683;48.650;9.290;2023-01-09T08:36:15;1.48;;;1.40;;
57856;SDS011;43683;48.650;9.290;2023-01-09T08:38:40;1.88;;;1.70;;
57856;SDS011;43683;48.650;9.290;2023-01-09T08:41:06;1.60;;;1.40;;
57856;SDS011;43683;48.650;9.290;2023-01-09T08:43:50;5.32;;;1.90;;
57856;SDS011;43683;48.650;9.290;2023-01-09T08:46:34;2.00;;;1.70;;
57856;SDS011;43683;48.650;9.290;2023-01-09T08:49:26;2.38;;;1.60;;
57856;SDS011;43683;48.650;9.290;2023-01-09T08:51:51;4.38;;;1.83;;
57856;SDS011;43683;48.650;9.290;2023-01-09T08:54:17;5.10;;;1.65;;
57856;SDS011;43683;48.650;9.290;2023-01-09T08:56:42;2.58;;;1.60;;
57856;SDS011;43683;48.650;9.290;2023-01-09T08:59:08;1.92;;;1.70;;
57856;SDS011;43683;48.650;9.290;2023-01-09T09:01:34;2.25;;;1.60;;
57856;SDS011;43683;48.650;9.290;2023-01-09T09:04:00;1.83;;;1.63;;
57856;SDS011;43683;48.650;9.290;2023-01-09T09:06:25;2.20;;;1.30;;
57856;SDS011;43683;48.650;9.290;2023-01-09T09:08:51;2.95;;;1.67;;
57856;SDS011;43683;48.650;9.290;2023-01-09T09:11:16;1.70;;;1.30;;
57856;SDS011;43683;48.650;9.290;2023-01-09T09:13:42;1.95;;;1.58;;
57856;SDS011;43683;48.650;9.290;2023-01-09T09:16:07;1.70;;;1.60;;
57856;SDS011;43683;48.650;9.290;2023-01-09T09:18:33;2.50;;;1.48;;
57856;SDS011;43683;48.650;9.290;2023-01-09T09:20:59;1.95;;;1.25;;
57856;SDS011;43683;48.650;9.290;2023-01-09T09:23:24;5.60;;;1.30;;
57856;SDS011;43683;48.650;9.290;2023-01-09T09:25:50;3.08;;;1.77;;
57856;SDS011;43683;48.650;9.290;2023-01-09T09:28:15;5.90;;;1.42;;
57856;SDS011;43683;48.650;9.290;2023-01-09T09:30:41;1.42;;;1.33;;
57856;SDS011;43683;48.650;9.290;2023-01-09T09:33:06;3.53;;;1.27;;
57856;SDS011;43683;48.650;9.290;2023-01-09T09:35:32;1.85;;;1.35;;
57856;SDS011;43683;48.650;9.290;2023-01-09T09:37:59;1.73;;;1.40;;
57856;SDS011;43683;48.650;9.290;2023-01-09T09:43:15;2.45;;;1.27;;
57856;SDS011;43683;48.650;9.290;2023-01-09T09:46:21;2.95;;;1.48;;
57856;SDS011;43683;48.650;9.290;2023-01-09T09:54:22;3.50;;;1.20;;
57856;SDS011;43683;48.650;9.290;2023-01-09T09:57:03;3.03;;;1.65;;
57856;SDS011;43683;48.650;9.290;2023-01-09T09:59:33;4.20;;;1.70;;
57856;SDS011;43683;48.650;9.290;2023-01-09T10:02:03;1.63;;;1.20;;
57856;SDS011;43683;48.650;9.290;2023-01-09T10:04:45;3.58;;;1.50;;
57856;SDS011;43683;48.650;9.290;2023-01-09T10:07:20;6.57;;;1.80;;
57856;SDS011;43683;48.650;9.290;2023-01-09T10:09:50;4.22;;;1.60;;
57856;SDS011;43683;48.650;9.290;2023-01-09T10:14:51;3.00;;;1.60;;
57856;SDS011;43683;48.650;9.290;2023-01-09T10:17:39;1.83;;;1.70;;
57856;SDS011;43683;48.650;9.290;2023-01-09T10:20:34;2.60;;;1.67;;
57856;SDS011;43683;48.650;9.290;2023-01-09T10:23:28;3.35;;;1.45;;
57856;SDS011;43683;48.650;9.290;2023-01-09T10:34:29;4.28;;;1.60;;
57856;SDS011;43683;48.650;9.290;2023-01-09T10:37:12;2.47;;;1.48;;
57856;SDS011;43683;48.650;9.290;2023-01-09T10:39:44;3.22;;;1.58;;
57856;SDS011;43683;48.650;9.290;2023-01-09T10:44:47;3.60;;;1.52;;
57856;SDS011;43683;48.650;9.290;2023-01-09T10:47:28;2.70;;;1.27;;
57856;SDS011;43683;48.650;9.290;2023-01-09T10:49:58;1.67;;;1.10;;
57856;SDS011;43683;48.650;9.290;2023-01-09T10:52:29;3.03;;;2.55;;
57856;SDS011;43683;48.650;9.290;2023-01-09T10:55:02;3.70;;;1.58;;
57856;SDS011;43683;48.650;9.290;2023-01-09T10:57:42;2.55;;;1.42;;
57856;SDS011;43683;48.650;9.290;2023-01-09T11:00:14;3.80;;;1.10;;
57856;SDS011;43683;48.650;9.290;2023-01-09T11:02:41;3.17;;;1.42;;
57856;SDS011;43683;48.650;9.290;2023-01-09T11:05:10;3.53;;;1.55;;
57856;SDS011;43683;48.650;9.290;2023-01-09T11:07:39;4.03;;;2.00;;
57856;SDS011;43683;48.650;9.290;2023-01-09T11:10:09;2.58;;;1.60;;
57856;SDS011;43683;48.650;9.290;2023-01-09T11:12:36;2.67;;;1.40;;
57856;SDS011;43683;48.650;9.290;2023-01-09T11:17:40;4.93;;;1.70;;
57856;SDS011;43683;48.650;9.290;2023-01-09T11:20:26;2.35;;;1.60;;
57856;SDS011;43683;48.650;9.290;2023-01-09T11:22:56;3.80;;;1.60;;
57856;SDS011;43683;48.650;9.290;2023-01-09T11:25:26;5.40;;;1.65;;
57856;SDS011;43683;48.650;9.290;2023-01-09T11:30:27;2.85;;;1.90;;
57856;SDS011;43683;48.650;9.290;2023-01-09T11:32:54;3.90;;;1.83;;
57856;SDS011;43683;48.650;9.290;2023-01-09T11:38:16;4.65;;;2.50;;
57856;SDS011;43683;48.650;9.290;2023-01-09T11:41:02;6.40;;;2.67;;
57856;SDS011;43683;48.650;9.290;2023-01-09T11:45:57;4.43;;;1.30;;
57856;SDS011;43683;48.650;9.290;2023-01-09T11:49:18;2.20;;;1.30;;
57856;SDS011;43683;48.650;9.290;2023-01-09T11:51:21;2.85;;;1.48;;
57856;SDS011;43683;48.650;9.290;2023-01-09T11:53:50;3.75;;;1.63;;
57856;SDS011;43683;48.650;9.290;2023-01-09T11:56:22;3.13;;;1.40;;
57856;SDS011;43683;48.650;9.290;2023-01-09T11:58:47;3.92;;;2.28;;
57856;SDS011;43683;48.650;9.290;2023-01-09T12:04:10;4.75;;;2.22;;
57856;SDS011;43683;48.650;9.290;2023-01-09T12:14:56;5.43;;;2.58;;
57856;SDS011;43683;48.650;9.290;2023-01-09T12:17:37;4.47;;;1.75;;
57856;SDS011;43683;48.650;9.290;2023-01-09T12:20:17;3.85;;;1.67;;
57856;SDS011;43683;48.650;9.290;2023-01-09T12:25:56;2.10;;;1.20;;
57856;SDS011;43683;48.650;9.290;2023-01-09T12:28:31;2.28;;;1.30;;
57856;SDS011;43683;48.650;9.290;2023-01-09T12:34:06;1.75;;;1.20;;
57856;SDS011;43683;48.650;9.290;2023-01-09T12:36:53;1.63;;;1.20;;
57856;SDS011;43683;48.650;9.290;2023-01-09T12:42:20;2.55;;;1.25;;
57856;SDS011;43683;48.650;9.290;2023-01-09T12:45:27;2.65;;;1.23;;
57856;SDS011;43683;48.650;9.290;2023-01-09T12:48:14;3.42;;;1.40;;
57856;SDS011;43683;48.650;9.290;2023-01-09T12:51:22;2.50;;;1.20;;
57856;SDS011;43683;48.650;9.290;2023-01-09T12:56:39;2.73;;;1.67;;
57856;SDS011;43683;48.650;9.290;2023-01-09T12:59:15;5.05;;;1.50;;
57856;SDS011;43683;48.650;9.290;2023-01-09T13:01:57;2.88;;;1.27;;
57856;SDS011;43683;48.650;9.290;2023-01-09T13:04:29;3.35;;;1.02;;
57856;SDS011;43683;48.650;9.290;2023-01-09T13:06:57;2.80;;;1.10;;
57856;SDS011;43683;48.650;9.290;2023-01-09T13:09:40;1.67;;;1.08;;
57856;SDS011;43683;48.650;9.290;2023-01-09T13:12:22;2.65;;;1.17;;
57856;SDS011;43683;48.650;9.290;2023-01-09T13:14:52;2.55;;;1.10;;
57856;SDS011;43683;48.650;9.290;2023-01-09T13:17:23;2.03;;;1.20;;
57856;SDS011;43683;48.650;9.290;2023-01-09T13:19:52;1.67;;;0.90;;
57856;SDS011;43683;48.650;9.290;2023-01-09T13:22:18;1.58;;;0.90;;
57856;SDS011;43683;48.650;9.290;2023-01-09T13:24:55;1.43;;;0.70;;
57856;SDS011;43683;48.650;9.290;2023-01-09T13:27:33;1.27;;;0.80;;
57856;SDS011;43683;48.650;9.290;2023-01-09T13:32:40;0.60;;;0.60;;
57856;SDS011;43683;48.650;9.290;2023-01-09T13:38:15;0.80;;;0.80;;
57856;SDS011;43683;48.650;9.290;2023-01-09T13:40:43;0.75;;;0.75;;
57856;SDS011;43683;48.650;9.290;2023-01-09T13:43:09;0.88;;;0.88;;
57856;SDS011;43683;48.650;9.290;2023-01-09T13:45:35;0.68;;;0.68;;
57856;SDS011;43683;48.650;9.290;2023-01-09T13:50:42;0.60;;;0.60;;
57856;SDS011;43683;48.650;9.290;2023-01-09T13:58:22;1.33;;;0.80;;
57856;SDS011;43683;48.650;9.290;2023-01-09T14:00:53;0.77;;;0.77;;
57856;SDS011;43683;48.650;9.290;2023-01-09T14:03:24;1.08;;;0.98;;
57856;SDS011;43683;48.650;9.290;2023-01-09T14:08:26;0.80;;;0.80;;
57856;SDS011;43683;48.650;9.290;2023-01-09T14:10:54;0.70;;;0.70;;
57856;SDS011;43683;48.650;9.290;2023-01-09T14:13:23;2.15;;;1.20;;
57856;SDS011;43683;48.650;9.290;2023-01-09T14:15:52;1.20;;;1.10;;
57856;SDS011;43683;48.650;9.290;2023-01-09T14:18:48;0.80;;;0.80;;
57856;SDS011;43683;48.650;9.290;2023-01-09T14:21:22;0.85;;;0.85;;
57856;SDS011;43683;48.650;9.290;2023-01-09T14:23:51;0.80;;;0.80;;
57856;SDS011;43683;48.650;9.290;2023-01-09T14:26:41;0.80;;;0.80;;
57856;SDS011;43683;48.650;9.290;2023-01-09T14:35:22;1.00;;;0.90;;
57856;SDS011;43683;48.650;9.290;2023-01-09T14:37:40;0.70;;;0.70;;
57856;SDS011;43683;48.650;9.290;2023-01-09T14:40:14;0.80;;;0.80;;
57856;SDS011;43683;48.650;9.290;2023-01-09T14:42:44;1.23;;;0.85;;
57856;SDS011;43683;48.650;9.290;2023-01-09T14:45:15;0.70;;;0.70;;
57856;SDS011;43683;48.650;9.290;2023-01-09T14:47:59;1.70;;;1.60;;
57856;SDS011;43683;48.650;9.290;2023-01-09T14:53:15;1.40;;;0.95;;
57856;SDS011;43683;48.650;9.290;2023-01-09T14:55:51;3.75;;;1.20;;
57856;SDS011;43683;48.650;9.290;2023-01-09T14:58:25;1.15;;;0.90;;
57856;SDS011;43683;48.650;9.290;2023-01-09T15:00:54;1.17;;;1.08;;
57856;SDS011;43683;48.650;9.290;2023-01-09T15:03:24;1.00;;;0.90;;
57856;SDS011;43683;48.650;9.290;2023-01-09T15:05:53;1.05;;;1.00;;
57856;SDS011;43683;48.650;9.290;2023-01-09T15:08:21;1.00;;;1.00;;
57856;SDS011;43683;48.650;9.290;2023-01-09T15:10:50;1.15;;;1.08;;
57856;SDS011;43683;48.650;9.290;2023-01-09T15:13:19;1.75;;;1.30;;
57856;SDS011;43683;48.650;9.290;2023-01-09T15:16:06;1.85;;;1.20;;
57856;SDS011;43683;48.650;9.290;2023-01-09T15:18:41;2.22;;;1.35;;
57856;SDS011;43683;48.650;9.290;2023-01-09T15:21:10;4.72;;;1.80;;
57856;SDS011;43683;48.650;9.290;2023-01-09T15:23:41;2.90;;;1.60;;
57856;SDS011;43683;48.650;9.290;2023-01-09T15:26:18;1.75;;;1.25;;
57856;SDS011;43683;48.650;9.290;2023-01-09T15:28:49;1.65;;;1.55;;
57856;SDS011;43683;48.650;9.290;2023-01-09T15:31:17;1.48;;;1.10;;
57856;SDS011;43683;48.650;9.290;2023-01-09T15:33:46;1.15;;;1.05;;
57856;SDS011;43683;48.650;9.290;2023-01-09T15:36:14;1.00;;;1.00;;
57856;SDS011;43683;48.650;9.290;2023-01-09T15:38:44;0.88;;;0.88;;
57856;SDS011;43683;48.650;9.290;2023-01-09T15:41:14;1.15;;;1.15;;
57856;SDS011;43683;48.650;9.290;2023-01-09T15:44:02;1.30;;;1.20;;
57856;SDS011;43683;48.650;9.290;2023-01-09T15:46:29;0.95;;;0.95;;
57856;SDS011;43683;48.650;9.290;2023-01-09T15:48:55;1.00;;;1.00;;
57856;SDS011;43683;48.650;9.290;2023-01-09T15:51:21;1.05;;;1.00;;
57856;SDS011;43683;48.650;9.290;2023-01-09T15:53:47;1.00;;;1.00;;
57856;SDS011;43683;48.650;9.290;2023-01-09T15:56:20;1.00;;;1.00;;
57856;SDS011;43683;48.650;9.290;2023-01-09T15:58:51;1.10;;;1.10;;
57856;SDS011;43683;48.650;9.290;2023-01-09T16:01:26;1.10;;;1.10;;
57856;SDS011;43683;48.650;9.290;2023-01-09T16:04:06;1.48;;;1.10;;
57856;SDS011;43683;48.650;9.290;2023-01-09T16:09:16;1.30;;;1.30;;
57856;SDS011;43683;48.650;9.290;2023-01-09T16:11:55;1.58;;;1.40;;
57856;SDS011;43683;48.650;9.290;2023-01-09T16:14:25;1.10;;;1.10;;
57856;SDS011;43683;48.650;9.290;2023-01-09T16:16:58;1.40;;;1.30;;
57856;SDS011;43683;48.650;9.290;2023-01-09T16:19:32;2.05;;;1.42;;
57856;SDS011;43683;48.650;9.290;2023-01-09T16:22:29;1.40;;;1.30;;
57856;SDS011;43683;48.650;9.290;2023-01-09T16:24:59;1.67;;;1.58;;
57856;SDS011;43683;48.650;9.290;2023-01-09T16:27:44;1.40;;;1.30;;
57856;SDS011;43683;48.650;9.290;2023-01-09T16:30:53;2.30;;;1.85;;
57856;SDS011;43683;48.650;9.290;2023-01-09T16:33:24;1.83;;;1.73;;
57856;SDS011;43683;48.650;9.290;2023-01-09T16:35:51;1.95;;;1.73;;
57856;SDS011;43683;48.650;9.290;2023-01-09T16:38:17;1.60;;;1.50;;
57856;SDS011;43683;48.650;9.290;2023-01-09T16:43:48;2.17;;;1.40;;
57856;SDS011;43683;48.650;9.290;2023-01-09T16:46:15;2.25;;;1.63;;
57856;SDS011;43683;48.650;9.290;2023-01-09T16:48:43;3.30;;;1.75;;
57856;SDS011;43683;48.650;9.290;2023-01-09T16:51:19;1.63;;;1.52;;
57856;SDS011;43683;48.650;9.290;2023-01-09T16:53:47;1.50;;;1.40;;